Aviation Digital Data Service (ADDS)

Output produced by METARs form (2346 UTC 21 September 2021)
found at http://aviationweather.gov/metar/data/
 
Forecast for: LECV (MADRI-COLMENAR , ES)
Text: TAF LECV 212300Z 2200/2224 05010KT CAVOK TX23/2215Z TN10/2206Z
Forecast period: 0000 UTC 22 September 2021 to 0000 UTC 23 September 2021
Forecast type: FROM: standard forecast or significant change
Winds: from the NE (50 degrees) at 12 MPH (10 knots; 5.1 m/s)
Visibility: 6 or more miles (10+ km)
Ceiling: unknown
Clouds: missing
Weather: no significant weather forecast for this period
Text: TEMPO 2210/2216 VRB05KT
Forecast period: 1000 to 1600 UTC 22 September 2021
Forecast type: TEMPORARY: The following changes expected for less than half the time period
Winds: variable direction winds at 6 MPH (5 knots; 2.6 m/s)
Visibility: missing
Ceiling: unknown
Clouds: missing
Weather: no significant weather forecast for this period
Text: PROB40
Forecast period: 1100 to 1600 UTC 22 September 2021
Forecast type: TEMPORARY: The following changes expected for less than half the time period
Visibility: missing
Ceiling: at least 12,000 feet AGL
Clouds: scattered clouds at 4000 feet AGL
Weather: DZ  (moderate drizzle)